Time;durP1;ratioP1;P1;durP2;ratioP2;P2;SDS_P1;SDS_P2;PMS_P1;PMS_P2;Temp;Humidity;BMP_temperature;BMP_pressure;BME280_temperature;BME280_humidity;BME280_pressure;Samples;Min_cycle;Max_cycle;Signal;HPM_P1;HPM_P2
2022/03/05 00:00:20;;;;;;;12.17;6.07;;;4.70;95.40;;;;;;7389728;19;20131;-75
2022/03/05 00:02:46;;;;;;;10.80;5.80;;;4.70;95.40;;;;;;7392095;19;20146;-73
2022/03/05 00:05:13;;;;;;;11.30;5.23;;;4.80;95.30;;;;;;7391818;19;20143;-75
2022/03/05 00:07:39;;;;;;;9.33;5.10;;;4.90;94.90;;;;;;7390788;19;20134;-75
2022/03/05 00:10:05;;;;;;;11.20;5.50;;;4.80;94.90;;;;;;7390929;19;20135;-74
2022/03/05 00:12:32;;;;;;;11.63;4.97;;;4.80;94.90;;;;;;7389642;19;20135;-76
2022/03/05 00:14:57;;;;;;;10.37;5.83;;;4.80;94.80;;;;;;7388914;19;20603;-74
2022/03/05 00:17:23;;;;;;;7.83;4.57;;;4.80;95.00;;;;;;7390399;19;20130;-75
2022/03/05 00:19:49;;;;;;;11.83;5.37;;;4.60;95.00;;;;;;7388745;19;20146;-74
2022/03/05 00:22:15;;;;;;;9.83;5.27;;;4.80;94.90;;;;;;7391093;19;20123;-76
2022/03/05 00:24:41;;;;;;;12.67;5.60;;;4.40;94.90;;;;;;7391150;19;20137;-73
2022/03/05 00:27:08;;;;;;;11.37;6.07;;;4.30;95.30;;;;;;7391498;19;20127;-74
2022/03/05 00:29:34;;;;;;;8.00;5.37;;;4.30;95.50;;;;;;7389159;19;21025;-75
2022/03/05 00:31:59;;;;;;;12.67;6.33;;;4.20;95.70;;;;;;7390000;19;20123;-74
2022/03/05 00:34:25;;;;;;;10.00;5.87;;;4.00;96.00;;;;;;7390677;19;20483;-74
2022/03/05 00:36:51;;;;;;;9.97;5.77;;;3.70;96.20;;;;;;7391001;19;20142;-75
2022/03/05 00:39:19;;;;;;;9.27;5.57;;;3.80;96.40;;;;;;7388629;19;20141;-74
2022/03/05 00:41:45;;;;;;;11.20;6.13;;;3.70;96.30;;;;;;7388448;19;20550;-75
2022/03/05 00:44:10;;;;;;;11.57;5.70;;;3.70;96.70;;;;;;7396526;19;20137;-74
2022/03/05 00:46:36;;;;;;;10.27;5.80;;;3.70;96.70;;;;;;7388520;19;20142;-73
2022/03/05 00:49:02;;;;;;;10.37;5.83;;;3.70;96.90;;;;;;7388585;19;20127;-74
2022/03/05 00:51:29;;;;;;;11.30;5.30;;;4.00;96.80;;;;;;7389478;19;20155;-75
2022/03/05 00:53:55;;;;;;;14.87;5.90;;;4.10;96.60;;;;;;7389898;19;20130;-75
2022/03/05 00:56:21;;;;;;;11.20;6.07;;;4.00;96.80;;;;;;7388774;19;20155;-75
2022/03/05 00:58:47;;;;;;;11.77;5.53;;;4.00;97.00;;;;;;7389190;19;20547;-74
2022/03/05 01:01:12;;;;;;;10.63;5.60;;;3.90;97.00;;;;;;7390785;19;20123;-76
2022/03/05 01:03:38;;;;;;;9.77;5.57;;;3.80;97.10;;;;;;7390015;19;20130;-74
2022/03/05 01:06:05;;;;;;;8.93;5.77;;;3.60;97.40;;;;;;7389104;19;20127;-75
2022/03/05 01:08:31;;;;;;;9.47;5.40;;;3.60;97.50;;;;;;7389842;19;20194;-75
2022/03/05 01:10:56;;;;;;;10.30;5.37;;;3.50;97.70;;;;;;7387234;19;20135;-75
2022/03/05 01:13:22;;;;;;;11.13;6.17;;;3.40;97.90;;;;;;7388521;19;20123;-75
2022/03/05 01:15:48;;;;;;;10.10;6.20;;;3.60;97.80;;;;;;7387726;19;20139;-75
2022/03/05 01:18:14;;;;;;;9.23;5.47;;;3.60;97.60;;;;;;7387685;19;20551;-74
2022/03/05 01:20:39;;;;;;;9.90;5.43;;;3.70;97.30;;;;;;7387353;19;20159;-75
2022/03/05 01:23:05;;;;;;;13.17;5.27;;;3.70;97.20;;;;;;7387203;19;20135;-75
2022/03/05 01:25:31;;;;;;;10.73;5.10;;;3.90;97.10;;;;;;7390342;19;20582;-74
2022/03/05 01:27:57;;;;;;;10.93;5.20;;;3.90;97.10;;;;;;7392872;19;20142;-75
2022/03/05 01:30:22;;;;;;;10.80;5.03;;;4.00;96.80;;;;;;7396777;19;20151;-75
2022/03/05 01:32:48;;;;;;;10.40;5.33;;;3.80;96.90;;;;;;7396325;19;20134;-75
2022/03/05 01:35:14;;;;;;;11.23;5.27;;;3.30;97.40;;;;;;7395969;19;20721;-75
2022/03/05 01:37:40;;;;;;;10.60;5.00;;;3.40;97.70;;;;;;7394146;19;20139;-74
2022/03/05 01:40:06;;;;;;;8.77;4.57;;;3.40;97.80;;;;;;7393210;19;20202;-76
2022/03/05 01:42:32;;;;;;;8.67;4.67;;;3.70;97.50;;;;;;7394273;19;20155;-73
2022/03/05 01:44:58;;;;;;;8.57;4.97;;;3.80;96.70;;;;;;7395648;19;20134;-75
2022/03/05 01:47:24;;;;;;;9.67;4.77;;;3.60;97.30;;;;;;7393602;19;20146;-75
2022/03/05 01:49:50;;;;;;;12.00;5.40;;;3.60;97.30;;;;;;7393762;19;20485;-76
2022/03/05 01:52:15;;;;;;;7.20;4.40;;;3.40;97.50;;;;;;7396328;19;20134;-75
2022/03/05 01:54:41;;;;;;;11.03;5.60;;;3.30;97.60;;;;;;7393532;19;20134;-75
2022/03/05 01:57:07;;;;;;;7.97;4.83;;;3.30;97.70;;;;;;7393775;19;20131;-74
2022/03/05 01:59:34;;;;;;;8.73;4.40;;;3.10;98.10;;;;;;7397119;19;20161;-76
2022/03/05 02:02:00;;;;;;;8.60;5.13;;;3.10;98.10;;;;;;7395673;19;20141;-75
2022/03/05 02:04:26;;;;;;;7.80;4.70;;;3.10;98.50;;;;;;7398142;19;20680;-74
2022/03/05 02:06:54;;;;;;;10.43;4.63;;;3.00;98.30;;;;;;7397208;19;20130;-73
2022/03/05 02:09:20;;;;;;;12.33;5.57;;;3.00;98.40;;;;;;7397394;19;20594;-75
2022/03/05 02:11:46;;;;;;;7.27;3.97;;;3.10;98.40;;;;;;7395052;19;20332;-75
2022/03/05 02:14:17;;;;;;;7.70;4.70;;;3.20;98.40;;;;;;7395856;19;20204;-75
2022/03/05 02:16:43;;;;;;;9.20;4.83;;;3.10;98.30;;;;;;7397470;19;20127;-76
2022/03/05 02:19:09;;;;;;;11.50;5.50;;;3.10;98.40;;;;;;7392643;19;20171;-75
2022/03/05 02:21:36;;;;;;;10.23;4.97;;;3.40;98.40;;;;;;7397194;19;20138;-75
2022/03/05 02:24:02;;;;;;;10.40;5.13;;;3.60;97.90;;;;;;7395734;19;20219;-76
2022/03/05 02:26:29;;;;;;;13.87;5.87;;;3.40;98.20;;;;;;7394168;19;20672;-74
2022/03/05 02:28:55;;;;;;;12.63;5.20;;;3.30;98.50;;;;;;7394260;19;20546;-74
2022/03/05 02:31:21;;;;;;;13.20;5.80;;;3.20;98.60;;;;;;7394902;19;20135;-73
2022/03/05 02:33:47;;;;;;;13.83;6.33;;;3.40;98.60;;;;;;7395229;19;20210;-74
2022/03/05 02:36:13;;;;;;;10.40;5.60;;;3.40;98.30;;;;;;7395982;19;20130;-73
2022/03/05 02:38:39;;;;;;;7.83;4.70;;;3.10;98.40;;;;;;7394257;19;20141;-73
2022/03/05 02:41:06;;;;;;;8.57;5.27;;;3.30;98.60;;;;;;7394391;19;20139;-74
2022/03/05 02:43:32;;;;;;;10.50;4.90;;;3.30;98.70;;;;;;7393659;19;20131;-75
2022/03/05 02:45:58;;;;;;;10.67;5.13;;;3.50;98.50;;;;;;7393183;19;20146;-74
2022/03/05 02:48:25;;;;;;;9.73;5.47;;;3.40;98.50;;;;;;7392681;19;20456;-74
2022/03/05 02:50:51;;;;;;;11.60;5.60;;;3.70;98.20;;;;;;7394352;19;20131;-74
2022/03/05 02:53:17;;;;;;;15.70;5.93;;;3.70;97.90;;;;;;7391430;19;20145;-73
2022/03/05 02:55:43;;;;;;;10.57;4.83;;;3.70;97.80;;;;;;7393972;19;20158;-75
2022/03/05 02:58:10;;;;;;;9.13;4.90;;;3.70;97.50;;;;;;7393342;19;20163;-73
2022/03/05 03:00:39;;;;;;;8.03;4.70;;;3.50;97.80;;;;;;7396558;19;20131;-74
2022/03/05 03:03:05;;;;;;;12.00;5.43;;;3.20;98.00;;;;;;7396177;19;20182;-75
2022/03/05 03:05:31;;;;;;;8.93;4.50;;;3.20;98.50;;;;;;7393359;19;20488;-76
2022/03/05 03:07:56;;;;;;;9.37;5.07;;;3.40;98.00;;;;;;7394769;19;20135;-77
2022/03/05 03:10:22;;;;;;;11.63;5.03;;;3.50;98.00;;;;;;7392692;19;20127;-73
2022/03/05 03:12:48;;;;;;;10.90;5.43;;;3.50;98.00;;;;;;7396330;19;20610;-75
2022/03/05 03:15:15;;;;;;;8.40;4.87;;;3.40;98.10;;;;;;7394823;19;20131;-74
2022/03/05 03:17:49;;;;;;;8.33;5.00;;;3.20;98.40;;;;;;7392233;19;20596;-73
2022/03/05 03:20:24;;;;;;;8.70;5.10;;;3.30;98.40;;;;;;7390475;19;20142;-73
2022/03/05 03:22:50;;;;;;;11.90;5.07;;;3.30;98.30;;;;;;7392143;19;20153;-74
2022/03/05 03:25:16;;;;;;;7.70;4.87;;;3.20;98.70;;;;;;7390649;19;20168;-74
2022/03/05 03:27:42;;;;;;;8.67;4.90;;;3.10;98.70;;;;;;7390550;19;20198;-75
2022/03/05 03:30:10;;;;;;;9.93;5.03;;;3.00;98.70;;;;;;7394522;19;20626;-75
2022/03/05 03:32:37;;;;;;;8.20;5.13;;;3.00;98.90;;;;;;7396567;19;20135;-74
2022/03/05 03:35:05;;;;;;;10.27;5.43;;;3.20;98.90;;;;;;7392090;19;20134;-74
2022/03/05 03:37:31;;;;;;;7.07;4.60;;;3.40;98.70;;;;;;7389315;19;20150;-74
2022/03/05 03:39:58;;;;;;;13.47;5.67;;;3.40;98.60;;;;;;7390881;19;20480;-74
2022/03/05 03:42:25;;;;;;;10.03;5.30;;;3.50;98.80;;;;;;7391617;19;20207;-75
2022/03/05 03:44:51;;;;;;;9.37;5.13;;;3.50;98.70;;;;;;7392742;19;20134;-75
2022/03/05 03:47:18;;;;;;;10.27;4.87;;;3.40;98.70;;;;;;7391170;19;20154;-74
2022/03/05 03:49:44;;;;;;;10.83;5.33;;;3.10;98.80;;;;;;7403888;19;20165;-74
2022/03/05 03:52:10;;;;;;;9.40;5.73;;;2.80;99.60;;;;;;7389811;19;20130;-74
2022/03/05 03:54:36;;;;;;;10.03;5.83;;;2.70;99.80;;;;;;7389763;19;20138;-75
2022/03/05 03:57:02;;;;;;;8.20;5.10;;;3.00;99.60;;;;;;7390076;19;20167;-74
2022/03/05 03:59:28;;;;;;;8.80;5.10;;;3.00;99.60;;;;;;7388519;19;20203;-73
2022/03/05 04:01:53;;;;;;;9.17;5.63;;;3.10;99.50;;;;;;7392194;19;20203;-75
2022/03/05 04:04:19;;;;;;;9.43;5.00;;;3.20;99.50;;;;;;7389325;19;20176;-74
2022/03/05 04:09:29;;;;;;;8.13;4.90;;;3.40;98.70;;;;;;7390926;19;20142;-75
2022/03/05 04:11:55;;;;;;;9.13;5.13;;;3.20;99.10;;;;;;7391285;19;20150;-75
2022/03/05 04:14:21;;;;;;;6.50;4.00;;;3.20;99.20;;;;;;7389095;19;20527;-74
2022/03/05 04:16:46;;;;;;;11.03;5.20;;;2.90;99.30;;;;;;7388679;19;20599;-73
2022/03/05 04:19:12;;;;;;;8.23;4.80;;;2.70;99.80;;;;;;7388623;19;20874;-73
2022/03/05 04:21:38;;;;;;;8.70;4.80;;;2.80;99.90;;;;;;7390834;19;20127;-75
2022/03/05 04:24:04;;;;;;;10.40;4.80;;;2.60;99.80;;;;;;7388547;19;20493;-74
2022/03/05 04:26:30;;;;;;;9.30;5.00;;;2.50;99.90;;;;;;7389008;19;20895;-74
2022/03/05 04:28:55;;;;;;;9.37;5.23;;;2.60;99.90;;;;;;7390883;19;20135;-74
2022/03/05 04:31:21;;;;;;;7.30;4.87;;;2.80;99.90;;;;;;7389784;19;20159;-73
2022/03/05 04:33:48;;;;;;;8.70;5.47;;;3.00;99.90;;;;;;7390337;19;20122;-73
2022/03/05 04:36:14;;;;;;;9.63;5.10;;;2.80;99.90;;;;;;7387514;19;20135;-74
2022/03/05 04:38:40;;;;;;;11.47;5.33;;;2.70;99.90;;;;;;7388185;19;20622;-75
2022/03/05 04:41:05;;;;;;;8.93;5.13;;;2.70;99.90;;;;;;7388533;19;20134;-75
2022/03/05 04:43:31;;;;;;;8.13;5.10;;;2.80;99.90;;;;;;7388189;19;20583;-74
2022/03/05 04:45:57;;;;;;;10.33;5.10;;;2.90;99.90;;;;;;7387682;19;20149;-74
2022/03/05 04:48:23;;;;;;;9.63;5.37;;;3.10;99.60;;;;;;7390460;19;20129;-75
2022/03/05 04:50:49;;;;;;;10.63;5.13;;;3.30;99.20;;;;;;7389668;19;20127;-74
2022/03/05 04:53:15;;;;;;;10.93;4.93;;;3.40;99.00;;;;;;7388695;19;20610;-74
2022/03/05 04:55:42;;;;;;;7.60;4.67;;;3.40;98.70;;;;;;7390423;19;20158;-73
2022/03/05 04:58:08;;;;;;;8.80;4.43;;;3.30;99.00;;;;;;7387514;19;20131;-74
2022/03/05 05:00:34;;;;;;;11.63;5.40;;;2.70;99.50;;;;;;7388867;19;20162;-76
2022/03/05 05:02:59;;;;;;;8.87;4.83;;;3.00;99.80;;;;;;7388121;19;20160;-76
2022/03/05 05:05:25;;;;;;;6.77;4.30;;;3.30;99.50;;;;;;7387912;19;20134;-74
2022/03/05 05:07:51;;;;;;;7.93;5.00;;;3.20;99.30;;;;;;7389841;19;20122;-75
2022/03/05 05:10:16;;;;;;;8.53;4.47;;;2.90;99.80;;;;;;7389769;19;20446;-74
2022/03/05 05:12:42;;;;;;;10.33;5.80;;;2.80;99.80;;;;;;7389964;19;20146;-73
2022/03/05 05:15:09;;;;;;;10.93;5.80;;;3.00;99.90;;;;;;7389284;19;20209;-75
2022/03/05 05:17:38;;;;;;;9.47;4.87;;;3.00;99.80;;;;;;7385918;19;20146;-75
2022/03/05 05:20:08;;;;;;;9.80;4.87;;;2.90;99.90;;;;;;7387566;19;20137;-75
2022/03/05 05:22:34;;;;;;;8.57;4.93;;;2.70;99.90;;;;;;7389356;19;20127;-74
2022/03/05 05:25:00;;;;;;;9.47;5.50;;;2.70;99.90;;;;;;7387863;19;20752;-74
2022/03/05 05:27:26;;;;;;;9.90;5.20;;;2.90;99.90;;;;;;7388133;19;20151;-73
2022/03/05 05:29:52;;;;;;;10.17;5.40;;;2.70;99.80;;;;;;7391783;19;20602;-73
2022/03/05 05:32:18;;;;;;;8.00;4.97;;;2.80;99.90;;;;;;7388725;19;20212;-74
2022/03/05 05:34:44;;;;;;;9.77;5.10;;;2.90;99.90;;;;;;7388143;19;20134;-75
2022/03/05 05:37:10;;;;;;;9.80;5.03;;;3.00;99.90;;;;;;7386590;19;20134;-74
2022/03/05 05:39:36;;;;;;;9.60;5.00;;;3.00;99.80;;;;;;7385375;19;20161;-74
2022/03/05 05:42:03;;;;;;;9.03;5.37;;;2.70;99.90;;;;;;7386641;19;20135;-75
2022/03/05 05:44:29;;;;;;;7.97;5.00;;;2.60;99.90;;;;;;7388548;19;20154;-75
2022/03/05 05:46:55;;;;;;;9.50;4.83;;;2.70;99.90;;;;;;7386694;19;20142;-74
2022/03/05 05:49:21;;;;;;;9.53;5.17;;;3.00;99.90;;;;;;7386413;19;20501;-75
2022/03/05 05:51:47;;;;;;;8.63;5.20;;;3.00;99.70;;;;;;7388373;19;20575;-74
2022/03/05 05:54:12;;;;;;;10.90;5.57;;;3.10;99.80;;;;;;7387362;19;20134;-74
2022/03/05 05:56:38;;;;;;;10.40;5.43;;;3.10;99.60;;;;;;7385981;19;20150;-75
2022/03/05 05:59:05;;;;;;;9.27;5.10;;;2.80;99.70;;;;;;7385563;19;20206;-74
2022/03/05 06:01:31;;;;;;;7.83;4.33;;;2.60;99.90;;;;;;7388387;19;20218;-75
2022/03/05 06:03:57;;;;;;;9.70;4.83;;;2.50;99.90;;;;;;7387884;19;20126;-74
2022/03/05 06:06:23;;;;;;;13.50;4.97;;;2.70;99.90;;;;;;7388810;19;20134;-73
2022/03/05 06:08:49;;;;;;;8.70;5.23;;;2.90;99.90;;;;;;7388326;19;20226;-74
2022/03/05 06:11:15;;;;;;;10.17;5.27;;;3.10;99.90;;;;;;7385201;19;20590;-75
2022/03/05 06:13:42;;;;;;;8.50;5.23;;;3.20;99.60;;;;;;7396207;19;20134;-75
2022/03/05 06:16:08;;;;;;;11.00;5.73;;;3.10;99.70;;;;;;7392306;19;20130;-73
2022/03/05 06:18:34;;;;;;;10.53;4.80;;;3.00;99.70;;;;;;7391573;19;20252;-73
2022/03/05 06:21:00;;;;;;;10.17;5.80;;;3.10;99.80;;;;;;7394436;19;20223;-74
2022/03/05 06:23:26;;;;;;;10.13;5.57;;;3.20;99.80;;;;;;7395411;19;20135;-75
2022/03/05 06:25:52;;;;;;;8.03;4.90;;;3.30;99.90;;;;;;7393658;19;20127;-74
2022/03/05 06:28:19;;;;;;;9.13;5.40;;;3.20;99.70;;;;;;7394666;19;20245;-75
2022/03/05 06:30:45;;;;;;;9.47;5.40;;;3.20;99.80;;;;;;7394582;19;20122;-75
2022/03/05 06:33:11;;;;;;;9.10;5.60;;;3.10;99.90;;;;;;7394728;19;20139;-74
2022/03/05 06:35:37;;;;;;;9.37;4.93;;;3.00;99.90;;;;;;7391814;19;20127;-75
2022/03/05 06:38:02;;;;;;;10.87;6.07;;;2.80;99.90;;;;;;7391760;19;20130;-74
2022/03/05 06:40:28;;;;;;;14.30;5.67;;;2.90;99.90;;;;;;7389651;19;20151;-73
2022/03/05 06:42:55;;;;;;;10.60;6.17;;;2.90;99.90;;;;;;7393711;19;20209;-74
2022/03/05 06:45:21;;;;;;;12.67;5.73;;;3.00;99.90;;;;;;7393811;19;20176;-73
2022/03/05 06:47:47;;;;;;;11.50;5.50;;;3.10;99.90;;;;;;7389215;19;20166;-73
2022/03/05 06:50:13;;;;;;;10.43;5.70;;;3.20;99.90;;;;;;7393262;19;20131;-74
2022/03/05 06:52:39;;;;;;;13.40;5.87;;;3.30;99.70;;;;;;7392723;19;20130;-74
2022/03/05 06:55:06;;;;;;;11.37;6.30;;;3.30;99.30;;;;;;7392095;19;20130;-75
2022/03/05 06:57:34;;;;;;;8.03;4.87;;;3.30;99.30;;;;;;7390657;19;20621;-74
2022/03/05 07:00:00;;;;;;;14.53;5.93;;;3.10;99.60;;;;;;7391658;19;20138;-74
2022/03/05 07:02:25;;;;;;;10.20;5.40;;;3.20;99.90;;;;;;7393269;19;20606;-73
2022/03/05 07:04:51;;;;;;;12.30;5.73;;;3.20;99.80;;;;;;7391690;19;20123;-74
2022/03/05 07:07:17;;;;;;;12.60;5.40;;;3.40;99.60;;;;;;7395033;19;20141;-74
2022/03/05 07:09:43;;;;;;;12.40;6.67;;;3.40;99.70;;;;;;7393198;19;20151;-75
2022/03/05 07:12:09;;;;;;;11.90;5.53;;;3.40;99.40;;;;;;7393461;19;20590;-75
2022/03/05 07:14:36;;;;;;;12.77;6.90;;;3.30;99.60;;;;;;7390742;19;20147;-75
2022/03/05 07:17:04;;;;;;;14.00;6.60;;;3.30;99.70;;;;;;7390853;19;20168;-74
2022/03/05 07:19:29;;;;;;;10.90;6.27;;;3.40;99.60;;;;;;7395973;19;20166;-73
2022/03/05 07:21:55;;;;;;;9.60;5.80;;;3.40;99.70;;;;;;7396471;19;20141;-75
2022/03/05 07:24:21;;;;;;;12.73;5.70;;;3.10;99.90;;;;;;7395969;19;20198;-73
2022/03/05 07:26:47;;;;;;;11.40;6.53;;;3.20;99.90;;;;;;7392679;19;20134;-75
2022/03/05 07:29:13;;;;;;;12.70;6.57;;;2.90;99.90;;;;;;7393692;19;20163;-73
2022/03/05 07:31:39;;;;;;;9.97;5.50;;;3.10;99.90;;;;;;7391867;19;20134;-74
2022/03/05 07:34:05;;;;;;;11.63;6.43;;;3.30;99.90;;;;;;7393420;19;20142;-73
2022/03/05 07:36:30;;;;;;;10.60;6.17;;;3.40;99.90;;;;;;7391892;19;20553;-74
2022/03/05 07:38:56;;;;;;;13.90;6.67;;;3.40;99.90;;;;;;7398060;19;20138;-75
2022/03/05 07:41:22;;;;;;;10.50;6.30;;;3.50;99.80;;;;;;7390851;19;20139;-73
2022/03/05 07:43:51;;;;;;;10.50;6.13;;;3.70;99.80;;;;;;7385213;19;20545;-74
2022/03/05 07:46:16;;;;;;;12.40;6.20;;;3.70;99.90;;;;;;7377649;19;20182;-74
2022/03/05 07:48:42;;;;;;;16.13;7.30;;;3.60;99.80;;;;;;7388185;19;20143;-76
2022/03/05 07:51:08;;;;;;;11.33;6.67;;;3.50;99.90;;;;;;7389194;19;20138;-74
2022/03/05 07:53:34;;;;;;;12.53;6.83;;;3.60;99.90;;;;;;7389664;19;20156;-74
2022/03/05 07:56:00;;;;;;;11.00;6.47;;;3.60;99.90;;;;;;7379019;19;22168;-74
2022/03/05 07:58:26;;;;;;;11.43;6.53;;;3.80;99.90;;;;;;7383458;19;20135;-74
2022/03/05 08:00:52;;;;;;;9.23;6.03;;;3.70;99.90;;;;;;7386393;19;20139;-74
2022/03/05 08:03:18;;;;;;;12.53;6.27;;;3.70;99.90;;;;;;7388196;19;20155;-73
2022/03/05 08:05:44;;;;;;;15.43;6.50;;;3.70;99.90;;;;;;7385956;19;20134;-75
2022/03/05 08:08:11;;;;;;;12.97;7.30;;;3.70;99.90;;;;;;7380577;19;20138;-74
2022/03/05 08:10:37;;;;;;;9.93;6.23;;;3.70;99.90;;;;;;7387597;19;20134;-74
2022/03/05 08:13:02;;;;;;;12.57;6.23;;;3.80;99.90;;;;;;7387723;19;20180;-75
2022/03/05 08:15:28;;;;;;;14.70;7.17;;;3.80;99.90;;;;;;7389175;19;20123;-74
2022/03/05 08:17:59;;;;;;;13.60;7.33;;;3.80;99.90;;;;;;7381623;19;20153;-74
2022/03/05 08:20:28;;;;;;;11.67;6.77;;;3.90;99.90;;;;;;7386064;19;20224;-73
2022/03/05 08:22:59;;;;;;;14.43;7.17;;;4.00;99.90;;;;;;7391962;19;20142;-74
2022/03/05 08:25:29;;;;;;;12.97;7.27;;;3.90;99.90;;;;;;7388159;19;20151;-75
2022/03/05 08:27:57;;;;;;;14.63;7.00;;;4.00;99.90;;;;;;7389944;19;20630;-74
2022/03/05 08:30:23;;;;;;;12.87;6.77;;;4.10;99.90;;;;;;7391733;19;20134;-75
2022/03/05 08:32:49;;;;;;;17.20;8.40;;;4.10;99.60;;;;;;7392480;19;20138;-73
2022/03/05 08:35:15;;;;;;;15.67;7.70;;;4.10;99.50;;;;;;7388822;19;20143;-72
2022/03/05 08:37:42;;;;;;;16.57;8.17;;;4.10;99.60;;;;;;7391464;19;20152;-76
2022/03/05 08:40:10;;;;;;;14.40;7.80;;;4.20;99.60;;;;;;7390003;19;20357;-74
2022/03/05 08:42:36;;;;;;;12.53;7.37;;;4.30;99.50;;;;;;7390027;19;20512;-75
2022/03/05 08:45:05;;;;;;;17.07;8.70;;;4.40;99.30;;;;;;7389294;19;20138;-75
2022/03/05 08:47:31;;;;;;;13.50;7.47;;;4.40;99.30;;;;;;7384529;19;20192;-76
2022/03/05 08:49:57;;;;;;;19.03;8.80;;;4.40;99.60;;;;;;7391204;19;20147;-74
2022/03/05 08:52:23;;;;;;;15.90;8.00;;;4.70;99.20;;;;;;7390932;19;20230;-73
2022/03/05 08:54:49;;;;;;;16.43;8.43;;;4.80;99.10;;;;;;7389616;19;20206;-75
2022/03/05 08:57:15;;;;;;;13.60;7.83;;;4.90;98.70;;;;;;7384875;19;20142;-75
2022/03/05 08:59:41;;;;;;;13.63;7.83;;;4.90;98.80;;;;;;7381025;19;20150;-76
2022/03/05 09:02:08;;;;;;;14.03;7.80;;;5.00;98.80;;;;;;7379491;19;20131;-75
2022/03/05 09:04:34;;;;;;;15.20;7.97;;;5.10;98.50;;;;;;7388782;19;20135;-72
2022/03/05 09:07:00;;;;;;;15.00;7.37;;;5.20;98.50;;;;;;7384874;19;20130;-76
2022/03/05 09:09:27;;;;;;;13.90;7.00;;;5.20;98.70;;;;;;7383626;19;20154;-75
2022/03/05 09:11:53;;;;;;;14.23;8.07;;;5.30;98.40;;;;;;7383525;19;20157;-74
2022/03/05 09:14:19;;;;;;;15.33;7.90;;;5.40;98.30;;;;;;7387151;19;20142;-77
2022/03/05 09:16:45;;;;;;;13.23;7.43;;;5.50;98.30;;;;;;7386894;19;20620;-73
2022/03/05 09:19:10;;;;;;;12.87;7.27;;;5.40;98.20;;;;;;7388918;19;20165;-73
2022/03/05 09:21:37;;;;;;;12.33;7.33;;;5.50;98.30;;;;;;7389320;19;20141;-72
2022/03/05 09:24:04;;;;;;;11.93;7.43;;;5.60;98.00;;;;;;7384640;19;20130;-72
2022/03/05 09:26:31;;;;;;;11.97;7.13;;;5.80;97.70;;;;;;7389559;19;20464;-76
2022/03/05 09:28:57;;;;;;;12.67;6.40;;;5.80;97.30;;;;;;7385932;19;20140;-76
2022/03/05 09:31:25;;;;;;;9.97;5.97;;;5.70;97.20;;;;;;7388686;19;20137;-72
2022/03/05 09:33:51;;;;;;;11.97;6.37;;;5.80;96.50;;;;;;7389773;19;20139;-71
2022/03/05 09:36:17;;;;;;;11.17;6.53;;;6.00;96.60;;;;;;7390133;19;20686;-71
2022/03/05 09:38:43;;;;;;;10.97;5.80;;;6.10;96.40;;;;;;7391136;19;20135;-75
2022/03/05 09:41:09;;;;;;;9.17;5.27;;;6.40;95.90;;;;;;7387900;19;20591;-75
2022/03/05 09:43:36;;;;;;;10.17;5.70;;;6.40;96.00;;;;;;7389968;19;20135;-73
2022/03/05 09:46:02;;;;;;;11.87;5.83;;;6.50;95.20;;;;;;7386362;19;20166;-72
2022/03/05 09:48:29;;;;;;;9.97;5.40;;;6.70;95.10;;;;;;7392468;19;20199;-76
2022/03/05 09:50:56;;;;;;;8.80;5.20;;;6.80;94.30;;;;;;7394694;19;20206;-82
2022/03/05 09:53:28;;;;;;;11.07;5.30;;;6.80;93.70;;;;;;7397113;19;20168;-75
2022/03/05 09:55:53;;;;;;;12.80;7.87;;;7.00;93.60;;;;;;7396134;19;20133;-72
2022/03/05 09:58:19;;;;;;;10.57;6.23;;;7.10;94.10;;;;;;7396605;19;20139;-73
2022/03/05 10:00:46;;;;;;;10.17;6.40;;;7.20;93.80;;;;;;7397276;19;20138;-72
2022/03/05 10:03:14;;;;;;;9.50;5.93;;;7.10;94.50;;;;;;7394067;19;20164;-75
2022/03/05 10:05:41;;;;;;;10.33;6.60;;;7.20;94.50;;;;;;7395924;19;20159;-73
2022/03/05 10:08:15;;;;;;;11.27;6.40;;;7.20;94.40;;;;;;7393144;19;20851;-75
2022/03/05 10:10:57;;;;;;;10.90;6.20;;;7.30;94.60;;;;;;7396662;19;20130;-76
2022/03/05 10:13:24;;;;;;;13.60;7.30;;;7.30;94.00;;;;;;7394360;19;20142;-75
2022/03/05 10:15:53;;;;;;;11.50;6.67;;;7.30;93.90;;;;;;7396007;19;20141;-75
2022/03/05 10:18:39;;;;;;;13.63;6.87;;;7.30;93.80;;;;;;7394458;19;20238;-73
2022/03/05 10:21:09;;;;;;;9.50;5.97;;;7.30;94.00;;;;;;7393622;19;20141;-75
2022/03/05 10:23:47;;;;;;;10.97;6.10;;;7.20;93.80;;;;;;7390052;19;20138;-72
2022/03/05 10:26:15;;;;;;;10.07;6.17;;;7.20;93.70;;;;;;7396146;19;20197;-76
2022/03/05 10:28:41;;;;;;;10.43;6.00;;;7.10;93.60;;;;;;7388487;19;20667;-75
2022/03/05 10:31:11;;;;;;;9.03;5.90;;;7.10;93.70;;;;;;7391706;19;20142;-73
2022/03/05 10:33:42;;;;;;;10.47;5.67;;;7.20;93.60;;;;;;7392322;19;20499;-76
2022/03/05 10:36:16;;;;;;;10.93;5.60;;;7.30;93.10;;;;;;7396836;19;20139;-78
2022/03/05 10:38:43;;;;;;;9.70;6.60;;;7.30;93.10;;;;;;7392380;19;20235;-81
2022/03/05 10:41:08;;;;;;;10.80;5.63;;;7.30;93.10;;;;;;7393381;19;20144;-85
2022/03/05 10:43:36;;;;;;;10.37;6.00;;;7.40;93.10;;;;;;7394334;19;20156;-73
2022/03/05 10:46:02;;;;;;;9.23;5.20;;;7.50;92.70;;;;;;7389411;19;20446;-79
2022/03/05 10:48:30;;;;;;;9.87;5.90;;;7.30;92.30;;;;;;7390763;19;20126;-73
2022/03/05 10:51:05;;;;;;;7.83;5.33;;;7.40;92.30;;;;;;7394967;19;20619;-84
2022/03/05 10:53:39;;;;;;;10.77;5.87;;;7.50;92.40;;;;;;7393326;19;20134;-72
2022/03/05 10:56:27;;;;;;;11.93;6.80;;;7.50;92.20;;;;;;7394358;19;20159;-73
2022/03/05 10:59:12;;;;;;;10.13;6.30;;;7.40;92.00;;;;;;7398393;19;20243;-74
2022/03/05 11:01:42;;;;;;;8.47;4.83;;;7.40;92.00;;;;;;7397898;19;20135;-83
2022/03/05 11:04:09;;;;;;;9.20;5.33;;;7.40;92.20;;;;;;7391955;19;20334;-79
2022/03/05 11:06:42;;;;;;;8.90;5.20;;;7.60;92.00;;;;;;7393867;19;20134;-82
2022/03/05 11:09:12;;;;;;;10.60;5.80;;;7.70;91.60;;;;;;7395564;19;20134;-81
2022/03/05 11:11:41;;;;;;;8.87;5.10;;;7.60;91.70;;;;;;7389263;19;20141;-85
2022/03/05 11:14:12;;;;;;;7.67;5.20;;;7.60;91.40;;;;;;7393119;19;20126;-76
2022/03/05 11:16:37;;;;;;;9.23;5.33;;;7.50;91.50;;;;;;7390661;19;20130;-73
2022/03/05 11:19:03;;;;;;;8.93;5.10;;;7.50;91.10;;;;;;7390108;19;20184;-81
2022/03/05 11:21:30;;;;;;;9.03;5.27;;;7.50;91.40;;;;;;7390357;19;20146;-80
2022/03/05 11:23:57;;;;;;;10.27;5.10;;;7.50;91.70;;;;;;7382938;19;20130;-79
2022/03/05 11:26:24;;;;;;;10.87;4.97;;;7.70;92.20;;;;;;7387856;19;20134;-79
2022/03/05 11:28:52;;;;;;;8.83;5.10;;;7.70;91.50;;;;;;7388031;19;20154;-82
2022/03/05 11:31:22;;;;;;;10.60;5.27;;;7.80;91.20;;;;;;7388084;19;20579;-73
2022/03/05 11:33:51;;;;;;;6.67;4.67;;;7.90;91.30;;;;;;7392849;19;20127;-80
2022/03/05 11:36:37;;;;;;;9.17;5.33;;;7.90;90.90;;;;;;7392363;19;20139;-79
2022/03/05 11:39:06;;;;;;;9.10;4.90;;;7.90;90.50;;;;;;7390940;19;20222;-75
2022/03/05 11:41:32;;;;;;;7.97;4.80;;;8.00;90.70;;;;;;7390033;19;20138;-72
2022/03/05 11:44:14;;;;;;;7.73;4.93;;;8.20;89.40;;;;;;7388766;19;20501;-72
2022/03/05 11:46:40;;;;;;;6.73;4.30;;;8.20;89.20;;;;;;7382062;19;20154;-73
2022/03/05 11:49:09;;;;;;;7.60;4.37;;;8.20;87.90;;;;;;7386644;19;20442;-72
2022/03/05 11:51:51;;;;;;;8.87;4.80;;;8.00;88.30;;;;;;7387291;19;20199;-73
2022/03/05 11:54:17;;;;;;;8.27;4.90;;;8.10;87.90;;;;;;7391077;19;20193;-73
2022/03/05 11:57:02;;;;;;;7.50;4.40;;;8.50;86.80;;;;;;7389929;19;20464;-72
2022/03/05 11:59:39;;;;;;;8.00;4.33;;;8.50;85.80;;;;;;7389334;19;20147;-72
2022/03/05 12:02:05;;;;;;;8.03;4.27;;;8.60;85.30;;;;;;7391325;19;20130;-74
2022/03/05 12:04:32;;;;;;;7.57;4.47;;;8.60;85.40;;;;;;7388707;19;20549;-75
2022/03/05 12:07:02;;;;;;;7.73;4.37;;;8.60;85.40;;;;;;7390365;19;20138;-75
2022/03/05 12:09:56;;;;;;;7.97;4.53;;;8.50;84.60;;;;;;7389371;19;20647;-73
2022/03/05 12:12:22;;;;;;;6.63;4.40;;;8.30;85.60;;;;;;7389834;19;20147;-74
2022/03/05 12:15:04;;;;;;;6.40;3.83;;;8.30;84.70;;;;;;7390456;19;20133;-73
2022/03/05 12:17:36;;;;;;;7.50;4.50;;;8.10;84.20;;;;;;7385700;19;20146;-74
2022/03/05 12:20:14;;;;;;;6.37;3.60;;;8.20;83.70;;;;;;7387451;19;20531;-73
2022/03/05 12:23:10;;;;;;;7.03;4.67;;;8.30;83.70;;;;;;7392198;19;20159;-73
2022/03/05 12:25:43;;;;;;;9.00;3.57;;;8.40;83.50;;;;;;7392279;19;20183;-73
2022/03/05 12:28:23;;;;;;;6.50;3.97;;;8.50;83.20;;;;;;7390502;19;20143;-72
2022/03/05 12:30:53;;;;;;;6.30;4.37;;;8.70;82.50;;;;;;7393232;19;20130;-73
2022/03/05 12:33:19;;;;;;;6.23;4.27;;;9.00;81.40;;;;;;7389897;19;20154;-75
2022/03/05 12:35:47;;;;;;;5.60;3.87;;;8.80;81.20;;;;;;7390447;19;20143;-73
2022/03/05 12:38:18;;;;;;;6.43;4.37;;;8.70;80.50;;;;;;7389374;19;20162;-73
2022/03/05 12:40:44;;;;;;;6.07;4.43;;;9.00;81.50;;;;;;7385399;19;20134;-75
2022/03/05 12:43:10;;;;;;;6.23;3.93;;;9.20;80.40;;;;;;7391621;19;20135;-74
2022/03/05 12:45:38;;;;;;;5.93;3.67;;;9.50;79.20;;;;;;7392442;19;20540;-77
2022/03/05 12:48:16;;;;;;;6.70;3.80;;;9.30;78.40;;;;;;7387234;19;20143;-74
2022/03/05 12:50:44;;;;;;;5.70;3.63;;;9.20;78.70;;;;;;7392213;19;20186;-75
2022/03/05 12:53:13;;;;;;;7.17;3.53;;;9.30;79.00;;;;;;7395923;19;20135;-75